Decoded Metar for KRAC (RACINE in WI, USA) (IATA:RAC) | Meteo·Mobile Aviation Weather
aviador You're here:

KRAC Decoded Metar

RACINE in WI, USA
Report Time2020-02-22 21:53:00
UTC Time2020-02-22 22:10:38
Flight Rules vfr VFR
Wind230° at 10 kt
W.Decomp.*RWY 22: 9.8 kt HW 2.1 kt RCW
RWY 32: 0.3 kt HW 10 kt LCW
Visibility9999 m
Phenomena:N/A
Clouds:N/A
Expected CloudBase > 4,000 ft AGL from Temp-Dew spread
CeilingNone
Temp07°C (ISA -7)
Dew Point-3°C (49% RH)
AAT1.0°C
QNH1019 hPa
Density Alt-269 ft
Elevation666 ft
Report Wrong Elevation
Raw Report
KRAC 222153Z AUTO 23010KT 10SM CLR 07/M03 A3008 RMK AO2 SLP193
T00721028=

Extra information for KRAC:More info

Metar Taf Metar & Taf Last 4 Metars F.Rules Stats Wind Profile Meteogram Temp Stats Airport Information Weather charts Add Link Nearby VenuesMetar ALERT Operation Metar Decoded Social comments

AIRNAV info for KRAC